createdAt,value
2019-02-25T00:00:26.003Z,63.70
2019-02-25T00:02:54.492Z,63.70
2019-02-25T00:05:22.942Z,63.70
2019-02-25T00:07:51.376Z,63.70
2019-02-25T00:10:19.974Z,63.80
2019-02-25T00:12:48.415Z,64.70
2019-02-25T00:15:16.862Z,63.90
2019-02-25T00:17:45.320Z,63.80
2019-02-25T00:20:13.785Z,64.00
2019-02-25T00:22:42.267Z,64.20
2019-02-25T00:25:12.567Z,64.50
2019-02-25T00:27:41.088Z,64.40
2019-02-25T00:30:14.606Z,64.20
2019-02-25T00:32:43.047Z,64.40
2019-02-25T00:35:11.586Z,64.80
2019-02-25T00:37:40.099Z,65.10
2019-02-25T00:40:10.531Z,65.10
2019-02-25T00:42:38.971Z,65.30
2019-02-25T00:45:15.987Z,65.10
2019-02-25T00:47:44.424Z,65.10
2019-02-25T00:50:36.694Z,65.00
2019-02-25T00:53:05.130Z,64.90
2019-02-25T00:55:33.623Z,64.70
2019-02-25T00:58:02.059Z,64.80
2019-02-25T01:00:30.577Z,64.80
2019-02-25T01:02:59.030Z,64.80
2019-02-25T01:05:46.816Z,64.90
2019-02-25T01:08:15.275Z,64.90
2019-02-25T01:10:43.723Z,64.90
2019-02-25T01:13:12.179Z,64.90
2019-02-25T01:15:40.622Z,65.00
2019-02-25T01:18:09.087Z,65.10
2019-02-25T01:20:37.638Z,65.20
2019-02-25T01:23:06.170Z,65.20
2019-02-25T01:25:34.611Z,65.40
2019-02-25T01:28:03.070Z,65.50
2019-02-25T01:30:31.517Z,65.70
2019-02-25T01:33:00.093Z,65.70
2019-02-25T01:35:28.553Z,65.70
2019-02-25T01:37:57.002Z,65.70
2019-02-25T01:40:25.468Z,65.70
2019-02-25T01:42:53.935Z,65.80
2019-02-25T01:45:22.445Z,65.80
2019-02-25T01:47:50.911Z,66.00
2019-02-25T01:50:19.353Z,66.00
2019-02-25T01:52:47.823Z,66.10
2019-02-25T01:55:16.347Z,66.10
2019-02-25T01:57:44.806Z,66.20
2019-02-25T02:00:16.331Z,66.30
2019-02-25T02:02:44.783Z,66.30
2019-02-25T02:05:13.690Z,66.50
2019-02-25T02:07:42.149Z,66.50
2019-02-25T02:10:15.360Z,66.70
2019-02-25T02:12:43.795Z,66.50
2019-02-25T02:15:17.996Z,66.60
2019-02-25T02:17:46.427Z,66.50
2019-02-25T02:20:16.837Z,66.50
2019-02-25T02:22:45.289Z,66.60
2019-02-25T02:25:14.481Z,66.60
2019-02-25T02:27:43.048Z,66.80
2019-02-25T02:30:32.433Z,66.80
2019-02-25T02:33:00.873Z,66.80
2019-02-25T02:35:29.321Z,66.80
2019-02-25T02:37:57.771Z,67.00
2019-02-25T02:40:26.216Z,67.00
2019-02-25T02:43:18.304Z,66.90
2019-02-25T02:45:49.826Z,66.80
2019-02-25T02:48:21.490Z,66.90
2019-02-25T02:50:50.003Z,66.90
2019-02-25T02:53:18.450Z,66.90
2019-02-25T02:55:46.896Z,66.90
2019-02-25T02:58:15.337Z,67.10
2019-02-25T03:00:43.803Z,67.20
2019-02-25T03:03:12.258Z,67.20
2019-02-25T03:05:40.707Z,67.50
2019-02-25T03:08:09.191Z,67.50
2019-02-25T03:10:37.640Z,67.50
2019-02-25T03:13:06.074Z,67.60
2019-02-25T03:15:34.559Z,67.70
2019-02-25T03:18:03.003Z,67.60
2019-02-25T03:20:31.448Z,67.80
2019-02-25T03:22:59.918Z,67.70
2019-02-25T03:25:28.356Z,67.70
2019-02-25T03:27:56.802Z,67.80
2019-02-25T03:30:25.334Z,67.90
2019-02-25T03:32:53.866Z,67.90
2019-02-25T03:35:22.391Z,68.10
2019-02-25T03:37:50.832Z,68.10
2019-02-25T03:40:40.194Z,68.10
2019-02-25T03:43:08.702Z,68.10
2019-02-25T03:45:37.158Z,68.00
2019-02-25T03:48:05.687Z,68.10
2019-02-25T03:50:34.151Z,68.10
2019-02-25T03:53:02.598Z,68.10
2019-02-25T03:55:31.088Z,68.10
2019-02-25T03:57:59.536Z,68.20
2019-02-25T04:00:28.072Z,68.20
2019-02-25T04:02:56.564Z,68.20
2019-02-25T04:05:25.011Z,68.50
2019-02-25T04:07:53.456Z,68.40
2019-02-25T04:10:21.941Z,68.40
2019-02-25T04:12:50.447Z,68.50
2019-02-25T04:15:21.782Z,68.50
2019-02-25T04:17:50.240Z,68.60
2019-02-25T04:20:18.726Z,68.60
2019-02-25T04:22:47.174Z,68.50
2019-02-25T04:25:15.612Z,68.40
2019-02-25T04:27:44.089Z,68.40
2019-02-25T04:30:31.863Z,68.50
2019-02-25T04:33:00.320Z,68.50
2019-02-25T04:35:28.790Z,68.60
2019-02-25T04:37:57.331Z,68.50
2019-02-25T04:40:25.779Z,68.60
2019-02-25T04:42:54.220Z,68.60
2019-02-25T04:45:22.739Z,68.60
2019-02-25T04:47:51.207Z,68.70
2019-02-25T04:50:19.651Z,68.70
2019-02-25T04:52:48.123Z,68.60
2019-02-25T04:55:16.570Z,68.60
2019-02-25T04:57:45.036Z,68.50
2019-02-25T05:00:16.456Z,68.80
2019-02-25T05:02:44.925Z,68.80
2019-02-25T05:05:13.510Z,69.20
2019-02-25T05:07:41.963Z,69.10
2019-02-25T05:10:12.946Z,69.10
2019-02-25T05:12:42.246Z,69.00
2019-02-25T05:15:12.519Z,70.00
2019-02-25T05:17:40.965Z,68.60
2019-02-25T05:20:09.602Z,68.80
2019-02-25T05:22:38.045Z,69.00
2019-02-25T05:25:08.762Z,69.30
2019-02-25T05:27:37.195Z,69.50
2019-02-25T05:30:16.260Z,69.60
2019-02-25T05:32:44.767Z,69.50
2019-02-25T05:35:13.801Z,69.40
2019-02-25T05:37:42.616Z,69.40
2019-02-25T05:40:16.275Z,69.70
2019-02-25T05:42:44.758Z,69.80
2019-02-25T05:45:15.184Z,69.60
2019-02-25T05:47:43.623Z,69.50
2019-02-25T05:50:19.224Z,69.40
2019-02-25T05:52:47.727Z,69.50
2019-02-25T05:55:17.015Z,69.50
2019-02-25T05:57:45.473Z,69.50
2019-02-25T06:00:19.565Z,69.30
2019-02-25T06:02:48.067Z,69.30
2019-02-25T06:05:16.532Z,69.30
2019-02-25T06:07:44.979Z,69.50
2019-02-25T06:10:14.568Z,69.60
2019-02-25T06:12:43.019Z,69.50
2019-02-25T06:15:18.647Z,69.90
2019-02-25T06:17:47.098Z,69.80
2019-02-25T06:20:16.647Z,69.60
2019-02-25T06:22:45.293Z,69.70
2019-02-25T06:25:15.311Z,69.70
2019-02-25T06:27:43.908Z,69.70
2019-02-25T06:30:15.772Z,69.60
2019-02-25T06:32:44.576Z,69.50
2019-02-25T06:35:13.727Z,69.70
2019-02-25T06:37:42.240Z,69.70
2019-02-25T06:40:15.637Z,69.70
2019-02-25T06:42:43.319Z,69.80
2019-02-25T06:45:20.056Z,69.90
2019-02-25T06:47:48.506Z,69.80
2019-02-25T06:50:16.946Z,69.80
2019-02-25T06:52:45.429Z,69.90
2019-02-25T06:55:16.121Z,70.00
2019-02-25T06:57:44.661Z,70.00
2019-02-25T07:00:18.062Z,70.10
2019-02-25T07:02:46.535Z,70.10
2019-02-25T07:05:25.390Z,70.00
2019-02-25T07:07:58.205Z,70.10
2019-02-25T07:13:32.766Z,70.30
2019-02-25T07:16:08.774Z,70.20
2019-02-25T07:18:41.362Z,70.30
2019-02-25T07:21:14.396Z,70.40
2019-02-25T07:23:44.487Z,70.40
2019-02-25T07:26:30.735Z,70.70
2019-02-25T07:29:03.615Z,70.80
2019-02-25T07:31:50.151Z,71.00
2019-02-25T07:34:38.551Z,71.10
2019-02-25T07:37:14.728Z,71.10
2019-02-25T07:39:50.874Z,71.40
2019-02-25T07:42:20.984Z,71.80
2019-02-25T07:44:51.068Z,72.10
2019-02-25T07:47:29.998Z,72.40
2019-02-25T07:50:46.766Z,72.50
2019-02-25T07:53:09.382Z,72.60
2019-02-25T07:55:42.431Z,72.50
2019-02-25T07:58:12.513Z,72.50
2019-02-25T08:00:42.593Z,72.50
2019-02-25T08:03:21.406Z,72.40
2019-02-25T08:06:00.016Z,72.30
2019-02-25T08:08:32.846Z,72.30
2019-02-25T08:11:14.887Z,72.60
2019-02-25T08:13:50.806Z,72.40
2019-02-25T08:16:36.966Z,72.30
2019-02-25T08:19:07.048Z,72.40
2019-02-25T08:21:39.643Z,72.20
2019-02-25T08:24:09.736Z,72.00
2019-02-25T08:29:30.230Z,71.50
2019-02-25T08:32:03.277Z,71.40
2019-02-25T08:34:49.762Z,71.30
2019-02-25T08:37:25.838Z,72.00
2019-02-25T08:40:39.622Z,72.10
2019-02-25T08:43:17.242Z,72.60
2019-02-25T08:45:47.331Z,72.60
2019-02-25T08:48:20.390Z,72.40
2019-02-25T08:50:48.837Z,72.00
2019-02-25T08:53:17.326Z,71.30
2019-02-25T08:55:45.814Z,70.80
2019-02-25T08:58:14.305Z,70.30
2019-02-25T09:00:42.780Z,70.30
2019-02-25T09:03:11.276Z,70.40
2019-02-25T09:05:39.724Z,70.00
2019-02-25T09:08:08.187Z,70.30
2019-02-25T09:10:36.639Z,69.70
2019-02-25T09:13:05.148Z,69.20
2019-02-25T09:15:33.679Z,68.10
2019-02-25T09:18:01.130Z,67.80
2019-02-25T09:20:29.579Z,67.50
2019-02-25T09:22:58.038Z,66.30
2019-02-25T09:25:26.486Z,65.00
2019-02-25T09:27:54.954Z,64.00
2019-02-25T09:30:23.421Z,63.50
2019-02-25T09:32:51.948Z,62.90
2019-02-25T09:35:20.400Z,61.20
2019-02-25T09:37:48.866Z,60.80
2019-02-25T09:40:18.781Z,59.60
2019-02-25T09:42:47.234Z,59.40
2019-02-25T09:45:18.886Z,58.90
2019-02-25T09:47:47.330Z,58.10
2019-02-25T09:50:21.462Z,56.90
2019-02-25T09:52:49.911Z,55.90
2019-02-25T09:55:18.398Z,54.80
2019-02-25T09:57:46.856Z,53.80
2019-02-25T10:00:19.284Z,53.90
2019-02-25T10:02:48.059Z,52.20
2019-02-25T10:05:16.515Z,50.40
2019-02-25T10:07:44.985Z,48.10
2019-02-25T10:10:14.977Z,49.30
2019-02-25T10:12:43.451Z,49.10
2019-02-25T10:15:20.281Z,49.70
2019-02-25T10:17:48.737Z,48.30
2019-02-25T10:20:18.668Z,48.10
2019-02-25T10:22:47.107Z,48.40
2019-02-25T10:25:15.582Z,48.00
2019-02-25T10:27:44.210Z,48.00
2019-02-25T10:30:14.542Z,47.20
2019-02-25T10:32:42.984Z,47.40
2019-02-25T10:35:21.002Z,48.10
2019-02-25T10:37:49.450Z,47.00
2019-02-25T10:40:22.231Z,46.50
2019-02-25T10:42:48.113Z,46.00
2019-02-25T10:45:21.378Z,45.50
2019-02-25T10:47:51.663Z,44.70
2019-02-25T10:50:20.091Z,44.20
2019-02-25T10:52:49.533Z,42.80
2019-02-25T10:55:45.007Z,41.70
2019-02-25T10:58:12.496Z,43.00
2019-02-25T11:00:41.731Z,42.50
2019-02-25T11:03:12.959Z,42.50
2019-02-25T11:05:41.290Z,41.30
2019-02-25T11:08:12.109Z,40.60
2019-02-25T11:10:44.156Z,38.90
2019-02-25T11:13:13.613Z,39.70
2019-02-25T11:15:43.989Z,40.00
2019-02-25T11:18:12.370Z,38.60
2019-02-25T11:20:40.952Z,37.90
2019-02-25T11:23:10.138Z,38.30
2019-02-25T11:25:39.651Z,39.20
2019-02-25T11:28:09.843Z,39.50
2019-02-25T11:30:38.304Z,39.20
2019-02-25T11:33:06.750Z,39.30
2019-02-25T11:35:36.604Z,37.70
2019-02-25T11:38:05.408Z,37.30
2019-02-25T11:40:35.923Z,37.20
2019-02-25T11:43:04.111Z,36.80
2019-02-25T11:45:32.706Z,37.00
2019-02-25T11:48:01.179Z,37.30
2019-02-25T11:50:29.668Z,37.10
2019-02-25T11:52:58.183Z,37.40
2019-02-25T11:55:26.715Z,36.30
2019-02-25T11:57:55.190Z,34.30
2019-02-25T12:00:29.388Z,34.30
2019-02-25T12:02:57.901Z,34.80
2019-02-25T12:05:26.380Z,35.10
2019-02-25T12:07:54.828Z,35.70
2019-02-25T12:10:23.286Z,36.40
2019-02-25T12:12:51.806Z,36.20
2019-02-25T12:15:22.518Z,36.00
2019-02-25T12:17:51.027Z,35.80
2019-02-25T12:20:19.910Z,36.30
2019-02-25T12:22:48.387Z,36.10
2019-02-25T12:25:24.412Z,36.10
2019-02-25T12:27:53.212Z,35.80
2019-02-25T12:30:26.999Z,35.90
2019-02-25T12:32:55.447Z,35.70
2019-02-25T12:35:23.987Z,35.40
2019-02-25T12:37:52.456Z,35.10
2019-02-25T12:40:21.485Z,35.40
2019-02-25T12:42:49.995Z,35.50
2019-02-25T12:45:18.450Z,35.10
2019-02-25T12:47:46.914Z,34.60
2019-02-25T12:50:19.205Z,34.40
2019-02-25T12:52:47.736Z,33.00
2019-02-25T12:55:18.135Z,33.00
2019-02-25T12:57:46.707Z,32.70
2019-02-25T13:00:23.443Z,33.20
2019-02-25T13:02:51.886Z,32.20
2019-02-25T13:05:22.639Z,32.70
2019-02-25T13:07:51.128Z,31.80
2019-02-25T13:10:19.852Z,31.50
2019-02-25T13:12:48.379Z,32.10
2019-02-25T13:15:19.307Z,31.60
2019-02-25T13:17:47.852Z,32.20
2019-02-25T13:20:16.499Z,32.70
2019-02-25T13:22:45.039Z,32.80
2019-02-25T13:25:16.126Z,32.60
2019-02-25T13:27:44.591Z,32.30
2019-02-25T13:30:15.342Z,31.70
2019-02-25T13:32:43.886Z,30.80
2019-02-25T13:35:16.094Z,31.90
2019-02-25T13:37:44.699Z,32.50
2019-02-25T13:40:15.084Z,32.80
2019-02-25T13:42:43.609Z,32.30
2019-02-25T13:45:14.490Z,32.30
2019-02-25T13:47:43.051Z,32.60
2019-02-25T13:50:30.911Z,31.60
2019-02-25T13:52:59.446Z,31.70
2019-02-25T13:55:27.966Z,31.40
2019-02-25T13:57:57.704Z,31.40
2019-02-25T14:00:27.771Z,31.70
2019-02-25T14:02:56.347Z,32.40
2019-02-25T14:05:24.931Z,32.20
2019-02-25T14:07:53.452Z,31.60
2019-02-25T14:10:22.064Z,31.20
2019-02-25T14:12:50.727Z,30.60
2019-02-25T14:15:22.044Z,31.70
2019-02-25T14:17:50.574Z,31.30
2019-02-25T14:20:23.995Z,31.50
2019-02-25T14:22:52.607Z,32.00
2019-02-25T14:25:29.360Z,32.40
2019-02-25T14:27:58.159Z,32.30
2019-02-25T14:30:27.935Z,32.80
2019-02-25T14:32:56.927Z,32.80
2019-02-25T14:35:28.596Z,32.60
2019-02-25T14:38:05.103Z,32.50
2019-02-25T14:40:32.113Z,32.90
2019-02-25T14:43:02.263Z,31.40
2019-02-25T14:45:33.586Z,31.20
2019-02-25T14:48:02.306Z,32.00
2019-02-25T14:50:30.123Z,30.50
2019-02-25T14:53:00.164Z,32.60
2019-02-25T14:55:28.940Z,32.10
2019-02-25T14:57:59.888Z,32.10
2019-02-25T15:00:29.031Z,32.70
2019-02-25T15:02:58.985Z,32.90
2019-02-25T15:05:28.007Z,33.00
2019-02-25T15:07:57.234Z,32.90
2019-02-25T15:10:29.068Z,33.10
2019-02-25T15:12:58.735Z,33.10
2019-02-25T15:15:26.175Z,33.10
2019-02-25T15:17:54.791Z,33.00
2019-02-25T15:20:24.095Z,33.00
2019-02-25T15:22:53.676Z,32.80
2019-02-25T15:25:22.214Z,32.90
2019-02-25T15:27:50.879Z,32.60
2019-02-25T15:30:30.419Z,32.50
2019-02-25T15:32:59.108Z,33.30
2019-02-25T15:35:31.371Z,33.30
2019-02-25T15:38:00.364Z,33.60
2019-02-25T15:40:29.219Z,34.00
2019-02-25T15:43:05.970Z,33.90
2019-02-25T15:45:38.306Z,34.10
2019-02-25T15:48:09.184Z,34.10
2019-02-25T15:50:37.723Z,34.40
2019-02-25T15:53:07.416Z,34.90
2019-02-25T15:55:36.663Z,35.20
2019-02-25T15:58:05.645Z,35.50
2019-02-25T16:00:36.707Z,35.80
2019-02-25T16:03:08.504Z,36.10
2019-02-25T16:05:38.297Z,36.60
2019-02-25T16:08:07.778Z,36.80
2019-02-25T16:10:36.371Z,37.20
2019-02-25T16:13:09.875Z,37.40
2019-02-25T16:15:35.696Z,37.70
2019-02-25T16:18:04.292Z,38.10
2019-02-25T16:20:33.409Z,38.50
2019-02-25T16:23:05.191Z,38.80
2019-02-25T16:25:34.343Z,39.10
2019-02-25T16:28:02.568Z,38.30
2019-02-25T16:30:31.222Z,39.50
2019-02-25T16:33:02.106Z,39.70
2019-02-25T16:35:30.028Z,39.90
2019-02-25T16:38:00.309Z,40.20
2019-02-25T16:40:30.861Z,40.50
2019-02-25T16:42:59.682Z,40.80
2019-02-25T16:45:34.728Z,41.00
2019-02-25T16:47:59.290Z,41.30
2019-02-25T16:50:27.826Z,41.50
2019-02-25T16:52:56.433Z,41.80
2019-02-25T16:55:27.632Z,42.00
2019-02-25T16:57:59.079Z,42.20
2019-02-25T17:00:30.014Z,42.40
2019-02-25T17:03:03.557Z,42.70
2019-02-25T17:05:29.679Z,42.90
2019-02-25T17:07:58.187Z,43.20
2019-02-25T17:10:29.133Z,43.50
2019-02-25T17:12:57.061Z,43.70
2019-02-25T17:15:26.945Z,43.90
2019-02-25T17:17:58.278Z,44.00
2019-02-25T17:20:28.020Z,44.20
2019-02-25T17:22:56.267Z,44.50
2019-02-25T17:25:26.938Z,44.70
2019-02-25T17:27:54.984Z,44.90
2019-02-25T17:30:25.727Z,45.10
2019-02-25T17:32:54.251Z,45.50
2019-02-25T17:35:26.610Z,45.60
2019-02-25T17:37:57.777Z,45.90
2019-02-25T17:40:24.867Z,46.20
2019-02-25T17:42:54.537Z,46.40
2019-02-25T17:45:27.706Z,46.80
2019-02-25T17:47:58.324Z,47.10
2019-02-25T17:50:26.598Z,47.30
2019-02-25T17:52:55.115Z,47.60
2019-02-25T17:55:31.636Z,48.00
2019-02-25T17:58:01.007Z,48.20
2019-02-25T18:00:38.815Z,48.50
2019-02-25T18:03:06.784Z,49.10
2019-02-25T18:05:36.346Z,49.40
2019-02-25T18:08:08.119Z,49.70
2019-02-25T18:10:36.883Z,50.00
2019-02-25T18:13:08.068Z,50.40
2019-02-25T18:15:35.736Z,50.40
2019-02-25T18:18:07.091Z,50.50
2019-02-25T18:20:36.588Z,50.80
2019-02-25T18:23:05.528Z,50.90
2019-02-25T18:25:34.097Z,51.30
2019-02-25T18:28:04.458Z,51.50
2019-02-25T18:30:33.393Z,51.60
2019-02-25T18:33:05.031Z,51.80
2019-02-25T18:35:35.771Z,51.90
2019-02-25T18:38:04.812Z,51.80
2019-02-25T18:40:33.486Z,51.90
2019-02-25T18:43:04.415Z,52.10
2019-02-25T18:45:35.392Z,52.20
2019-02-25T18:48:03.723Z,52.20
2019-02-25T18:50:32.464Z,52.20
2019-02-25T18:53:01.389Z,52.40
2019-02-25T18:55:33.489Z,52.40
2019-02-25T18:58:00.347Z,52.50
2019-02-25T19:00:42.494Z,52.50
2019-02-25T19:03:11.187Z,52.60
2019-02-25T19:05:39.809Z,52.70
2019-02-25T19:08:14.940Z,52.80
2019-02-25T19:10:45.318Z,52.90
2019-02-25T19:13:15.906Z,53.10
2019-02-25T19:15:43.858Z,53.20
2019-02-25T19:18:13.218Z,53.30
2019-02-25T19:20:43.447Z,53.50
2019-02-25T19:23:13.900Z,53.70
2019-02-25T19:25:43.256Z,53.90
2019-02-25T19:28:16.642Z,54.20
2019-02-25T19:30:42.152Z,54.40
2019-02-25T19:33:11.478Z,54.40
2019-02-25T19:35:40.912Z,54.50
2019-02-25T19:38:32.063Z,54.60
2019-02-25T19:40:59.584Z,54.80
2019-02-25T19:43:28.099Z,54.90
2019-02-25T19:45:57.218Z,55.00
2019-02-25T19:48:29.001Z,55.20
2019-02-25T19:50:58.522Z,55.30
2019-02-25T19:53:27.179Z,55.30
2019-02-25T19:55:55.768Z,55.50
2019-02-25T19:58:26.385Z,55.80
2019-02-25T20:00:58.412Z,55.90
2019-02-25T20:03:24.804Z,55.90
2019-02-25T20:05:54.471Z,56.10
2019-02-25T20:08:23.888Z,56.20
2019-02-25T20:10:54.300Z,56.30
2019-02-25T20:13:22.706Z,56.50
2019-02-25T20:15:53.085Z,56.70
2019-02-25T20:18:21.439Z,56.70
2019-02-25T20:20:50.646Z,56.90
2019-02-25T20:23:20.209Z,57.00
2019-02-25T20:25:51.010Z,57.20
2019-02-25T20:28:20.737Z,57.40
2019-02-25T20:30:51.504Z,57.60
2019-02-25T20:33:20.012Z,57.80
2019-02-25T20:35:51.301Z,58.20
2019-02-25T20:38:22.601Z,58.30
2019-02-25T20:40:50.826Z,58.30
2019-02-25T20:43:21.272Z,58.30
2019-02-25T20:45:52.093Z,58.30
2019-02-25T20:48:19.597Z,58.30
2019-02-25T20:50:48.194Z,58.50
2019-02-25T20:53:16.647Z,58.50
2019-02-25T20:55:45.111Z,58.70
2019-02-25T20:58:14.436Z,58.80
2019-02-25T21:00:44.102Z,59.20
2019-02-25T21:03:16.015Z,59.50
2019-02-25T21:05:44.123Z,59.50
2019-02-25T21:08:14.619Z,59.70
2019-02-25T21:10:43.853Z,60.10
2019-02-25T21:13:12.375Z,60.10
2019-02-25T21:15:42.912Z,60.30
2019-02-25T21:18:11.113Z,60.30
2019-02-25T21:20:39.658Z,60.50
2019-02-25T21:23:10.144Z,60.40
2019-02-25T21:25:38.645Z,61.00
2019-02-25T21:28:08.961Z,60.80
2019-02-25T21:30:41.181Z,60.80
2019-02-25T21:33:07.714Z,60.50
2019-02-25T21:35:37.986Z,60.40
2019-02-25T21:38:06.428Z,60.40
2019-02-25T21:40:34.995Z,60.20
2019-02-25T21:43:03.457Z,60.20
2019-02-25T21:45:32.506Z,60.40
2019-02-25T21:48:02.609Z,60.20
2019-02-25T21:50:34.027Z,60.20
2019-02-25T21:53:02.054Z,60.10
2019-02-25T21:55:32.598Z,60.30
2019-02-25T21:58:21.261Z,60.40
2019-02-25T22:00:50.249Z,60.50
2019-02-25T22:03:19.607Z,60.60
2019-02-25T22:05:49.570Z,60.70
2019-02-25T22:08:22.144Z,60.50
2019-02-25T22:10:49.256Z,60.70
2019-02-25T22:13:18.412Z,61.20
2019-02-25T22:15:47.918Z,61.30
2019-02-25T22:18:16.402Z,61.30
2019-02-25T22:20:47.062Z,61.50
2019-02-25T22:23:15.051Z,62.00
2019-02-25T22:25:43.536Z,61.80
2019-02-25T22:28:12.042Z,62.10
2019-02-25T22:30:40.502Z,62.00
2019-02-25T22:33:23.198Z,62.10
2019-02-25T22:35:40.535Z,62.20
2019-02-25T22:38:09.341Z,62.00
2019-02-25T22:40:39.021Z,62.00
2019-02-25T22:43:09.851Z,62.40
2019-02-25T22:45:39.724Z,62.50
2019-02-25T22:48:11.602Z,62.50
2019-02-25T22:50:38.658Z,62.50
2019-02-25T22:53:08.898Z,62.40
2019-02-25T22:55:56.663Z,62.60
2019-02-25T22:58:25.147Z,62.60
2019-02-25T23:00:58.248Z,62.60
2019-02-25T23:03:27.439Z,62.90
2019-02-25T23:05:55.342Z,63.20
2019-02-25T23:08:25.892Z,63.30
2019-02-25T23:10:54.229Z,63.50
2019-02-25T23:13:24.813Z,63.60
2019-02-25T23:15:53.530Z,63.60
2019-02-25T23:18:24.944Z,63.80
2019-02-25T23:20:54.481Z,64.20
2019-02-25T23:23:25.479Z,64.20
2019-02-25T23:25:54.166Z,64.40
2019-02-25T23:28:25.403Z,64.40
2019-02-25T23:30:53.249Z,64.50
2019-02-25T23:33:24.606Z,64.60
2019-02-25T23:35:55.502Z,64.50
2019-02-25T23:38:23.526Z,64.50
2019-02-25T23:40:52.116Z,64.80
2019-02-25T23:43:20.592Z,65.40
2019-02-25T23:45:49.122Z,65.70
2019-02-25T23:48:17.627Z,65.70
2019-02-25T23:50:47.953Z,65.80
2019-02-25T23:53:16.361Z,65.80
2019-02-25T23:55:47.144Z,65.80
2019-02-25T23:58:17.068Z,66.10
